createdAt,value
2022-07-25T04:02:56.818Z,99.90
2022-07-25T04:05:28.518Z,99.90
2022-07-25T04:08:00.176Z,99.90
2022-07-25T04:10:31.877Z,1.00
2022-07-25T04:13:03.543Z,1.00
2022-07-25T04:15:35.237Z,99.90
2022-07-25T04:18:09.177Z,99.90
2022-07-25T04:20:45.413Z,99.90
2022-07-25T04:23:17.085Z,1.00
2022-07-25T04:25:48.766Z,1.00
2022-07-25T04:28:20.422Z,1.00
2022-07-25T04:30:52.166Z,1.00
2022-07-25T04:33:25.213Z,1.00
2022-07-25T04:35:56.894Z,1.00
2022-07-25T04:38:28.546Z,99.90
2022-07-25T04:41:00.280Z,99.90
2022-07-25T04:43:31.937Z,99.90
2022-07-25T04:46:03.724Z,1.00
2022-07-25T04:48:36.927Z,1.00
2022-07-25T04:51:08.666Z,1.00
2022-07-25T04:53:40.359Z,1.00
2022-07-25T04:56:12.071Z,99.90
2022-07-25T04:58:43.739Z,99.90
2022-07-25T05:01:15.523Z,1.00
2022-07-25T05:03:49.725Z,1.00
2022-07-25T05:06:22.111Z,99.90
2022-07-25T05:08:53.764Z,99.90
2022-07-25T05:11:25.436Z,99.90
2022-07-25T05:13:57.101Z,38.80
2022-07-25T05:16:28.900Z,15.30
2022-07-25T05:19:01.917Z,1.00
2022-07-25T05:21:33.624Z,1.00
2022-07-25T05:24:06.183Z,1.00
2022-07-25T05:26:38.167Z,1.00
2022-07-25T05:29:09.879Z,1.00
2022-07-25T05:31:41.612Z,1.00
2022-07-25T05:34:14.674Z,1.00
2022-07-25T05:36:47.465Z,1.00
2022-07-25T05:39:19.262Z,26.00
2022-07-25T05:41:50.935Z,81.50
2022-07-25T05:44:22.629Z,99.90
2022-07-25T05:46:54.352Z,99.90
2022-07-25T05:49:27.443Z,99.90
2022-07-25T05:51:59.120Z,99.90
2022-07-25T05:54:30.798Z,99.90
2022-07-25T05:57:02.489Z,99.90
2022-07-25T05:59:34.165Z,99.90
2022-07-25T06:02:06.117Z,99.90
2022-07-25T06:04:39.282Z,99.90
2022-07-25T06:07:12.007Z,99.90
2022-07-25T06:09:48.659Z,99.90
2022-07-25T06:12:20.381Z,99.90
2022-07-25T06:14:56.018Z,99.90
2022-07-25T06:17:32.212Z,99.90
2022-07-25T06:20:06.656Z,99.90
2022-07-25T06:22:39.162Z,57.30
2022-07-25T06:25:10.982Z,1.00
2022-07-25T06:27:42.667Z,1.00
2022-07-25T06:30:19.698Z,1.00
2022-07-25T06:32:52.236Z,1.00
2022-07-25T06:35:25.293Z,1.00
2022-07-25T06:37:57.015Z,1.00
2022-07-25T06:40:28.860Z,1.00
2022-07-25T06:43:00.639Z,1.00
2022-07-25T06:45:32.433Z,1.00
2022-07-25T06:48:04.848Z,1.00
2022-07-25T06:50:37.859Z,1.00
2022-07-25T06:53:09.611Z,1.00
2022-07-25T06:55:41.293Z,1.00
2022-07-25T06:58:13.006Z,1.00
2022-07-25T07:00:44.801Z,1.00
2022-07-25T07:03:16.618Z,1.00
2022-07-25T07:05:49.668Z,1.00
2022-07-25T07:08:21.351Z,1.00
2022-07-25T07:10:53.068Z,1.00
2022-07-25T07:13:24.847Z,1.00
2022-07-25T07:15:56.633Z,1.00
2022-07-25T07:18:28.397Z,1.00
2022-07-25T07:21:01.422Z,1.00
2022-07-25T07:23:33.172Z,1.00
2022-07-25T07:26:05.006Z,1.00
2022-07-25T07:28:37.933Z,1.00
2022-07-25T07:31:17.859Z,1.00
2022-07-25T07:33:50.019Z,1.00
2022-07-25T07:36:23.157Z,1.00
2022-07-25T07:38:54.938Z,1.00
2022-07-25T07:41:26.637Z,1.00
2022-07-25T07:43:59.339Z,1.00
2022-07-25T07:46:31.128Z,1.00
2022-07-25T07:49:03.045Z,1.00
2022-07-25T07:51:36.212Z,1.00
2022-07-25T07:54:07.919Z,1.00
2022-07-25T07:56:39.656Z,1.00
2022-07-25T07:59:11.448Z,1.00
2022-07-25T08:01:43.262Z,1.00
2022-07-25T08:04:14.993Z,1.00
2022-07-25T08:06:48.075Z,1.00
2022-07-25T08:09:19.827Z,1.00
2022-07-25T08:11:51.660Z,1.00
2022-07-25T08:14:23.460Z,1.00
2022-07-25T08:16:55.124Z,1.00
2022-07-25T08:19:27.180Z,1.00
2022-07-25T08:22:00.231Z,1.00
2022-07-25T08:24:31.941Z,1.00
2022-07-25T08:27:03.934Z,1.00
2022-07-25T08:29:35.659Z,1.00
2022-07-25T08:32:07.393Z,1.00
2022-07-25T08:34:39.140Z,1.00
2022-07-25T08:37:12.219Z,1.00
2022-07-25T08:39:43.988Z,1.00
2022-07-25T08:42:15.684Z,1.00
2022-07-25T08:44:49.982Z,1.00
2022-07-25T08:47:21.777Z,1.00
2022-07-25T08:49:53.502Z,1.00
2022-07-25T08:52:26.523Z,1.00
2022-07-25T08:54:58.322Z,1.00
2022-07-25T08:57:30.072Z,1.00
2022-07-25T09:00:02.027Z,1.00
2022-07-25T09:02:34.043Z,1.00
2022-07-25T09:05:06.490Z,1.00
2022-07-25T09:07:40.297Z,1.00
2022-07-25T09:10:12.975Z,1.00
2022-07-25T09:12:51.781Z,1.00
2022-07-25T09:15:24.787Z,1.00
2022-07-25T09:17:58.170Z,1.00
2022-07-25T09:20:42.999Z,1.00
2022-07-25T09:23:26.877Z,1.00
2022-07-25T09:26:02.812Z,1.00
2022-07-25T09:28:39.867Z,1.00
2022-07-25T09:31:11.673Z,1.00
2022-07-25T09:33:45.579Z,1.00
2022-07-25T09:36:17.350Z,1.00
2022-07-25T09:38:53.798Z,1.00
2022-07-25T09:41:33.581Z,1.00
2022-07-25T09:44:15.629Z,1.00
2022-07-25T09:46:47.341Z,1.00
2022-07-25T09:49:19.084Z,1.00
2022-07-25T09:51:50.741Z,1.00
2022-07-25T09:54:23.780Z,1.00
2022-07-25T09:56:55.451Z,1.00
2022-07-25T09:59:27.126Z,1.00
2022-07-25T10:02:08.578Z,35.70
2022-07-25T10:04:44.786Z,82.70
2022-07-25T10:07:16.442Z,99.90
2022-07-25T10:09:50.265Z,99.90
2022-07-25T10:12:22.910Z,99.90
2022-07-25T10:15:05.999Z,99.90
2022-07-25T10:17:38.417Z,1.00
2022-07-25T10:20:10.491Z,99.90
2022-07-25T10:22:58.656Z,1.00
2022-07-25T10:25:31.790Z,1.00
2022-07-25T10:28:08.505Z,1.00
2022-07-25T10:30:40.541Z,20.50
2022-07-25T10:33:12.992Z,99.90
2022-07-25T10:35:44.736Z,99.90
2022-07-25T10:38:23.843Z,99.90
2022-07-25T10:40:56.875Z,99.90
2022-07-25T10:43:28.557Z,99.90
2022-07-25T10:46:00.265Z,1.00
2022-07-25T10:48:32.405Z,1.00
2022-07-25T10:51:05.841Z,1.00
2022-07-25T10:53:38.423Z,1.00
2022-07-25T10:56:13.829Z,1.00
2022-07-25T10:58:48.143Z,1.00
2022-07-25T11:01:21.205Z,1.00
2022-07-25T11:03:54.127Z,1.00
2022-07-25T11:09:01.815Z,1.00
2022-07-25T11:11:36.317Z,99.90
2022-07-25T11:14:14.909Z,99.90
2022-07-25T11:16:47.816Z,99.90
2022-07-25T11:19:20.688Z,99.90
2022-07-25T11:21:53.284Z,99.90
2022-07-25T11:24:34.399Z,99.90
2022-07-25T11:27:12.752Z,99.90
2022-07-25T11:29:44.690Z,99.90
2022-07-25T11:32:16.504Z,99.90
2022-07-25T11:34:49.266Z,99.90
2022-07-25T11:37:22.284Z,99.90
2022-07-25T11:39:54.363Z,1.00
2022-07-25T11:42:38.297Z,1.00
2022-07-25T11:45:16.746Z,1.00
2022-07-25T11:47:48.965Z,1.00
2022-07-25T11:50:29.077Z,1.00
2022-07-25T11:53:00.855Z,1.00
2022-07-25T11:55:34.388Z,1.00
2022-07-25T11:58:07.510Z,1.00
2022-07-25T12:00:40.042Z,1.00
2022-07-25T12:03:18.685Z,1.00
2022-07-25T12:05:51.103Z,1.00
2022-07-25T12:08:22.807Z,1.00
2022-07-25T12:10:54.512Z,1.00
2022-07-25T12:13:28.066Z,1.00
2022-07-25T12:16:00.021Z,1.00
2022-07-25T12:18:31.790Z,1.00
2022-07-25T12:21:03.722Z,1.00
2022-07-25T12:23:35.409Z,1.00
2022-07-25T12:26:07.086Z,1.00
2022-07-25T12:28:40.121Z,1.00
2022-07-25T12:31:11.816Z,1.00
2022-07-25T12:33:43.579Z,1.00
2022-07-25T12:36:15.264Z,1.00
2022-07-25T12:38:46.938Z,1.00
2022-07-25T12:41:18.618Z,1.00
2022-07-25T12:43:51.677Z,1.00
2022-07-25T12:46:23.412Z,1.00
2022-07-25T12:48:55.222Z,1.00
2022-07-25T12:51:26.951Z,1.00
2022-07-25T12:53:58.616Z,1.00
2022-07-25T12:56:30.361Z,1.00
2022-07-25T12:59:03.808Z,1.00
2022-07-25T13:01:35.771Z,1.30
2022-07-25T13:04:07.493Z,1.00
2022-07-25T13:06:39.236Z,1.00
2022-07-25T13:09:10.991Z,1.00
2022-07-25T13:11:42.686Z,1.00
2022-07-25T13:14:15.730Z,1.00
2022-07-25T13:16:47.713Z,1.00
2022-07-25T13:19:19.400Z,1.00
2022-07-25T13:21:51.109Z,1.00
2022-07-25T13:24:22.779Z,1.00
2022-07-25T13:26:54.480Z,1.00
2022-07-25T13:29:27.498Z,1.00
2022-07-25T13:31:59.286Z,1.00
2022-07-25T13:34:31.037Z,1.00
2022-07-25T13:37:02.717Z,1.00
2022-07-25T13:39:34.428Z,1.00
2022-07-25T13:42:06.354Z,1.00
2022-07-25T13:44:39.348Z,1.00
2022-07-25T13:47:11.172Z,1.00
2022-07-25T13:49:42.917Z,1.00
2022-07-25T13:52:14.602Z,10.60
2022-07-25T13:54:46.274Z,36.80
2022-07-25T13:57:17.985Z,17.90
2022-07-25T13:59:51.017Z,23.60
2022-07-25T14:02:22.760Z,12.50
2022-07-25T14:04:54.488Z,17.10
2022-07-25T14:07:26.246Z,21.90
2022-07-25T14:09:57.933Z,10.60
2022-07-25T14:12:29.649Z,1.00
2022-07-25T14:15:02.696Z,1.00
2022-07-25T14:17:34.532Z,1.00
2022-07-25T14:20:07.642Z,1.00
2022-07-25T14:22:39.514Z,1.00
2022-07-25T14:25:11.216Z,1.00
2022-07-25T14:27:42.938Z,1.00
2022-07-25T14:30:15.944Z,1.00
2022-07-25T14:32:47.650Z,1.00
2022-07-25T14:35:19.426Z,1.00
2022-07-25T14:37:51.119Z,1.00
2022-07-25T14:40:23.010Z,1.00
2022-07-25T14:42:54.690Z,1.00
2022-07-25T14:45:27.710Z,1.00
2022-07-25T14:47:59.414Z,1.00
2022-07-25T14:50:31.082Z,1.00
2022-07-25T14:53:02.748Z,1.00
2022-07-25T14:55:34.417Z,1.00
2022-07-25T14:58:06.096Z,1.00
2022-07-25T15:00:39.195Z,26.10
2022-07-25T15:03:10.930Z,34.80
2022-07-25T15:05:42.620Z,55.40
2022-07-25T15:08:14.315Z,63.50
2022-07-25T15:10:46.026Z,55.60
2022-07-25T15:13:33.200Z,99.90
2022-07-25T15:16:06.870Z,99.90
2022-07-25T15:18:58.585Z,99.90
2022-07-25T15:21:30.284Z,99.90
2022-07-25T15:24:02.050Z,99.90
2022-07-25T15:26:33.854Z,99.90
2022-07-25T15:29:06.899Z,99.90
2022-07-25T15:31:40.342Z,99.90
2022-07-25T15:34:12.138Z,99.90
2022-07-25T15:36:44.089Z,99.90
2022-07-25T15:39:15.770Z,99.90
2022-07-25T15:41:47.453Z,99.90
2022-07-25T15:44:19.162Z,99.90
2022-07-25T15:46:52.245Z,99.90
2022-07-25T15:49:24.077Z,99.90
2022-07-25T15:51:55.807Z,99.90
2022-07-25T15:54:29.475Z,99.90
2022-07-25T15:57:01.421Z,99.90
2022-07-25T15:59:33.104Z,99.90
2022-07-25T16:02:06.134Z,99.90
2022-07-25T16:04:37.827Z,99.90
2022-07-25T16:07:09.496Z,99.90
2022-07-25T16:09:41.195Z,99.90
2022-07-25T16:12:12.874Z,99.90
2022-07-25T16:14:44.632Z,99.90
2022-07-25T16:17:17.682Z,99.90
2022-07-25T16:19:49.486Z,99.90
2022-07-25T16:22:21.176Z,99.90
2022-07-25T16:24:52.876Z,99.90
2022-07-25T16:27:24.573Z,99.90
2022-07-25T16:29:57.700Z,99.90
2022-07-25T16:32:30.717Z,99.90
2022-07-25T16:35:02.452Z,99.90
2022-07-25T16:37:34.217Z,99.90
2022-07-25T16:40:07.134Z,99.90
2022-07-25T16:42:38.815Z,95.50
2022-07-25T16:45:11.243Z,54.50
2022-07-25T16:47:45.208Z,19.50
2022-07-25T16:50:16.878Z,29.10
2022-07-25T16:52:48.565Z,38.60
2022-07-25T16:55:20.421Z,39.40
2022-07-25T16:57:52.089Z,39.40
2022-07-25T17:00:23.776Z,39.10
2022-07-25T17:02:56.808Z,59.20
2022-07-25T17:05:28.488Z,71.60
2022-07-25T17:08:00.178Z,79.20
2022-07-25T17:10:31.845Z,73.80
2022-07-25T17:13:03.553Z,94.00
2022-07-25T17:15:35.262Z,94.30
2022-07-25T17:18:08.361Z,99.90
2022-07-25T17:20:40.046Z,99.90
2022-07-25T17:23:11.720Z,99.90
2022-07-25T17:25:47.337Z,99.90
2022-07-25T17:28:21.842Z,99.90
2022-07-25T17:30:53.587Z,99.90
2022-07-25T17:33:26.684Z,99.90
2022-07-25T17:35:58.718Z,99.90
2022-07-25T17:38:34.827Z,99.90
2022-07-25T17:41:06.940Z,99.90
2022-07-25T17:43:38.609Z,99.90
2022-07-25T17:46:10.362Z,99.90
2022-07-25T17:48:43.528Z,99.90
2022-07-25T17:51:15.269Z,99.90
2022-07-25T17:53:46.952Z,99.90
2022-07-25T17:56:18.690Z,99.90
2022-07-25T17:58:50.388Z,99.90
2022-07-25T18:01:22.130Z,99.90
2022-07-25T18:03:55.209Z,99.90
2022-07-25T18:06:29.904Z,99.90
2022-07-25T18:09:01.869Z,99.90
2022-07-25T18:11:33.565Z,99.90
2022-07-25T18:14:05.491Z,99.90
2022-07-25T18:16:37.495Z,99.90
2022-07-25T18:19:10.541Z,99.90
2022-07-25T18:21:42.251Z,99.90
2022-07-25T18:24:14.006Z,99.90
2022-07-25T18:26:45.761Z,99.90
2022-07-25T18:29:17.441Z,99.90
2022-07-25T18:31:49.116Z,99.90
2022-07-25T18:34:22.141Z,99.90
2022-07-25T18:36:53.812Z,99.90
2022-07-25T18:39:25.519Z,99.90
2022-07-25T18:41:57.214Z,99.90
2022-07-25T18:44:28.906Z,99.90
2022-07-25T18:47:00.654Z,99.90
2022-07-25T18:49:34.938Z,99.90
2022-07-25T18:52:06.659Z,99.90
2022-07-25T18:54:38.396Z,99.90
2022-07-25T18:57:10.052Z,99.90
2022-07-25T18:59:41.746Z,99.90
2022-07-25T19:02:13.502Z,99.90
2022-07-25T19:04:46.703Z,99.90
2022-07-25T19:07:18.478Z,99.90
2022-07-25T19:09:50.528Z,99.90
2022-07-25T19:12:22.285Z,99.90
2022-07-25T19:14:54.035Z,99.90
2022-07-25T19:17:25.701Z,99.90
2022-07-25T19:19:59.325Z,99.90
2022-07-25T19:22:31.019Z,99.90
2022-07-25T19:25:02.696Z,99.90
2022-07-25T19:27:34.408Z,99.90
2022-07-25T19:30:07.686Z,99.90
2022-07-25T19:32:39.354Z,99.90
2022-07-25T19:35:12.403Z,99.90
2022-07-25T19:37:44.068Z,99.90
2022-07-25T19:40:15.785Z,99.90
2022-07-25T19:42:47.471Z,99.90
2022-07-25T19:45:19.159Z,99.90
2022-07-25T19:47:50.824Z,99.90
2022-07-25T19:50:23.867Z,99.90
2022-07-25T19:52:55.584Z,99.90
2022-07-25T19:55:27.305Z,99.90
2022-07-25T19:57:58.973Z,99.90
2022-07-25T20:00:30.657Z,99.90
2022-07-25T20:03:02.409Z,99.90
2022-07-25T20:05:35.486Z,99.90
2022-07-25T20:08:07.530Z,99.90
2022-07-25T20:10:40.569Z,99.90
2022-07-25T20:13:12.222Z,99.90
2022-07-25T20:15:43.917Z,99.90
2022-07-25T20:18:19.581Z,99.90
2022-07-25T20:20:52.880Z,1.00
2022-07-25T20:23:24.561Z,1.00
2022-07-25T20:25:56.263Z,99.90
2022-07-25T20:28:28.106Z,1.00
2022-07-25T20:30:59.947Z,1.00
2022-07-25T20:33:31.665Z,1.00
2022-07-25T20:36:05.251Z,1.00
2022-07-25T20:38:36.977Z,1.00
2022-07-25T20:41:10.718Z,1.00
2022-07-25T20:43:42.380Z,1.00
2022-07-25T20:46:14.119Z,1.00
2022-07-25T20:48:45.863Z,1.00
2022-07-25T20:51:18.930Z,1.00
2022-07-25T20:53:51.596Z,1.00
2022-07-25T20:56:25.093Z,1.00
2022-07-25T20:58:56.766Z,1.00
2022-07-25T21:01:28.492Z,1.00
2022-07-25T21:04:03.181Z,1.00
2022-07-25T21:06:38.720Z,1.00
2022-07-25T21:09:11.179Z,1.00
2022-07-25T21:11:43.104Z,1.00
2022-07-25T21:14:14.807Z,1.00
2022-07-25T21:16:46.597Z,1.00
2022-07-25T21:19:18.302Z,1.00
2022-07-25T21:21:51.330Z,1.00
2022-07-25T21:24:24.103Z,1.00
2022-07-25T21:26:55.852Z,1.00
2022-07-25T21:29:27.521Z,1.00
2022-07-25T21:31:59.237Z,1.00
2022-07-25T21:34:30.945Z,1.00
2022-07-25T21:37:04.034Z,1.00
2022-07-25T21:39:35.762Z,1.00
2022-07-25T21:42:07.581Z,21.90
2022-07-25T21:44:39.309Z,81.70
2022-07-25T21:47:11.082Z,18.60
2022-07-25T21:49:42.904Z,80.00
2022-07-25T21:52:16.073Z,1.00
2022-07-25T21:54:47.745Z,8.40
2022-07-25T21:57:19.428Z,1.00
2022-07-25T21:59:51.109Z,1.60
